sensor_id;sensor_type;location;lat;lon;timestamp;temperature;humidity
29663;DHT22;16578;53.266;7.920;2023-06-10T00:01:47;19.50;55.20
29663;DHT22;16578;53.266;7.920;2023-06-10T00:04:16;19.40;55.30
29663;DHT22;16578;53.266;7.920;2023-06-10T00:06:43;19.40;55.50
29663;DHT22;16578;53.266;7.920;2023-06-10T00:09:09;19.30;55.60
29663;DHT22;16578;53.266;7.920;2023-06-10T00:11:39;19.30;55.80
29663;DHT22;16578;53.266;7.920;2023-06-10T00:14:04;19.30;55.90
29663;DHT22;16578;53.266;7.920;2023-06-10T00:16:30;19.20;55.90
29663;DHT22;16578;53.266;7.920;2023-06-10T00:18:56;19.20;56.10
29663;DHT22;16578;53.266;7.920;2023-06-10T00:21:26;19.10;56.20
29663;DHT22;16578;53.266;7.920;2023-06-10T00:23:51;19.10;56.30
29663;DHT22;16578;53.266;7.920;2023-06-10T00:26:17;19.10;56.40
29663;DHT22;16578;53.266;7.920;2023-06-10T00:28:42;19.00;56.50
29663;DHT22;16578;53.266;7.920;2023-06-10T00:31:10;19.00;56.80
29663;DHT22;16578;53.266;7.920;2023-06-10T00:33:36;19.00;56.80
29663;DHT22;16578;53.266;7.920;2023-06-10T00:36:01;18.90;56.90
29663;DHT22;16578;53.266;7.920;2023-06-10T00:38:27;18.80;57.00
29663;DHT22;16578;53.266;7.920;2023-06-10T00:40:52;18.80;57.10
29663;DHT22;16578;53.266;7.920;2023-06-10T00:43:18;18.70;57.20
29663;DHT22;16578;53.266;7.920;2023-06-10T00:45:43;18.70;57.40
29663;DHT22;16578;53.266;7.920;2023-06-10T00:48:09;18.70;57.60
29663;DHT22;16578;53.266;7.920;2023-06-10T00:50:35;18.60;57.80
29663;DHT22;16578;53.266;7.920;2023-06-10T00:53:04;18.60;58.10
29663;DHT22;16578;53.266;7.920;2023-06-10T00:55:32;18.50;58.30
29663;DHT22;16578;53.266;7.920;2023-06-10T00:57:58;18.50;58.50
29663;DHT22;16578;53.266;7.920;2023-06-10T01:00:24;18.40;58.70
29663;DHT22;16578;53.266;7.920;2023-06-10T01:02:49;18.40;58.90
29663;DHT22;16578;53.266;7.920;2023-06-10T01:05:17;18.30;59.20
29663;DHT22;16578;53.266;7.920;2023-06-10T01:07:56;18.30;59.30
29663;DHT22;16578;53.266;7.920;2023-06-10T01:10:53;18.30;60.00
29663;DHT22;16578;53.266;7.920;2023-06-10T01:13:22;18.30;60.40
29663;DHT22;16578;53.266;7.920;2023-06-10T01:15:49;18.20;60.30
29663;DHT22;16578;53.266;7.920;2023-06-10T01:18:15;18.20;60.30
29663;DHT22;16578;53.266;7.920;2023-06-10T01:20:42;18.20;60.30
29663;DHT22;16578;53.266;7.920;2023-06-10T01:23:10;18.10;61.00
29663;DHT22;16578;53.266;7.920;2023-06-10T01:25:41;18.10;61.60
29663;DHT22;16578;53.266;7.920;2023-06-10T01:31:00;18.00;62.60
29663;DHT22;16578;53.266;7.920;2023-06-10T01:33:37;18.00;62.90
29663;DHT22;16578;53.266;7.920;2023-06-10T01:36:04;17.90;63.10
29663;DHT22;16578;53.266;7.920;2023-06-10T01:38:36;17.90;63.40
29663;DHT22;16578;53.266;7.920;2023-06-10T01:41:03;17.90;64.80
29663;DHT22;16578;53.266;7.920;2023-06-10T01:43:33;17.90;64.20
29663;DHT22;16578;53.266;7.920;2023-06-10T01:45:58;17.90;64.50
29663;DHT22;16578;53.266;7.920;2023-06-10T01:48:24;17.80;64.50
29663;DHT22;16578;53.266;7.920;2023-06-10T01:50:49;17.80;64.90
29663;DHT22;16578;53.266;7.920;2023-06-10T01:53:15;17.80;65.20
29663;DHT22;16578;53.266;7.920;2023-06-10T01:55:40;17.80;65.30
29663;DHT22;16578;53.266;7.920;2023-06-10T01:58:06;17.80;65.70
29663;DHT22;16578;53.266;7.920;2023-06-10T02:00:31;17.80;65.90
29663;DHT22;16578;53.266;7.920;2023-06-10T02:02:57;17.70;65.90
29663;DHT22;16578;53.266;7.920;2023-06-10T02:05:22;17.70;66.20
29663;DHT22;16578;53.266;7.920;2023-06-10T02:07:48;17.70;66.40
29663;DHT22;16578;53.266;7.920;2023-06-10T02:10:14;17.60;66.80
29663;DHT22;16578;53.266;7.920;2023-06-10T02:12:39;17.60;66.90
29663;DHT22;16578;53.266;7.920;2023-06-10T02:15:05;17.60;67.20
29663;DHT22;16578;53.266;7.920;2023-06-10T02:17:31;17.60;67.30
29663;DHT22;16578;53.266;7.920;2023-06-10T02:19:57;17.50;67.50
29663;DHT22;16578;53.266;7.920;2023-06-10T02:22:25;17.50;67.90
29663;DHT22;16578;53.266;7.920;2023-06-10T02:24:51;17.50;68.10
29663;DHT22;16578;53.266;7.920;2023-06-10T02:27:17;17.40;68.20
29663;DHT22;16578;53.266;7.920;2023-06-10T02:29:43;17.40;68.40
29663;DHT22;16578;53.266;7.920;2023-06-10T02:32:09;17.40;68.50
29663;DHT22;16578;53.266;7.920;2023-06-10T02:34:35;17.40;68.80
29663;DHT22;16578;53.266;7.920;2023-06-10T02:37:02;17.30;69.10
29663;DHT22;16578;53.266;7.920;2023-06-10T02:39:28;17.30;69.20
29663;DHT22;16578;53.266;7.920;2023-06-10T02:41:53;17.30;69.50
29663;DHT22;16578;53.266;7.920;2023-06-10T02:44:19;17.20;69.50
29663;DHT22;16578;53.266;7.920;2023-06-10T02:46:45;17.20;69.70
29663;DHT22;16578;53.266;7.920;2023-06-10T02:49:12;17.20;69.70
29663;DHT22;16578;53.266;7.920;2023-06-10T02:51:38;17.10;69.90
29663;DHT22;16578;53.266;7.920;2023-06-10T02:54:03;17.10;70.10
29663;DHT22;16578;53.266;7.920;2023-06-10T02:56:30;17.10;70.30
29663;DHT22;16578;53.266;7.920;2023-06-10T02:58:55;17.10;70.40
29663;DHT22;16578;53.266;7.920;2023-06-10T03:01:21;17.10;70.50
29663;DHT22;16578;53.266;7.920;2023-06-10T03:03:46;17.00;70.70
29663;DHT22;16578;53.266;7.920;2023-06-10T03:06:13;17.00;70.80
29663;DHT22;16578;53.266;7.920;2023-06-10T03:08:39;17.00;71.20
29663;DHT22;16578;53.266;7.920;2023-06-10T03:11:05;17.00;71.20
29663;DHT22;16578;53.266;7.920;2023-06-10T03:13:32;17.00;71.40
29663;DHT22;16578;53.266;7.920;2023-06-10T03:15:57;16.90;71.50
29663;DHT22;16578;53.266;7.920;2023-06-10T03:18:26;16.90;71.40
29663;DHT22;16578;53.266;7.920;2023-06-10T03:20:54;16.90;71.70
29663;DHT22;16578;53.266;7.920;2023-06-10T03:23:20;16.90;71.80
29663;DHT22;16578;53.266;7.920;2023-06-10T03:25:46;16.90;71.70
29663;DHT22;16578;53.266;7.920;2023-06-10T03:28:11;16.90;71.90
29663;DHT22;16578;53.266;7.920;2023-06-10T03:30:37;16.80;71.80
29663;DHT22;16578;53.266;7.920;2023-06-10T03:33:03;16.80;71.90
29663;DHT22;16578;53.266;7.920;2023-06-10T03:35:29;16.80;72.20
29663;DHT22;16578;53.266;7.920;2023-06-10T03:37:55;16.80;72.20
29663;DHT22;16578;53.266;7.920;2023-06-10T03:40:20;16.80;72.30
29663;DHT22;16578;53.266;7.920;2023-06-10T03:42:46;16.80;72.20
29663;DHT22;16578;53.266;7.920;2023-06-10T03:45:11;16.80;72.30
29663;DHT22;16578;53.266;7.920;2023-06-10T03:47:37;16.80;72.50
29663;DHT22;16578;53.266;7.920;2023-06-10T03:50:04;16.70;72.50
29663;DHT22;16578;53.266;7.920;2023-06-10T03:52:30;16.70;72.60
29663;DHT22;16578;53.266;7.920;2023-06-10T03:54:55;16.70;72.70
29663;DHT22;16578;53.266;7.920;2023-06-10T03:57:21;16.70;72.90
29663;DHT22;16578;53.266;7.920;2023-06-10T03:59:46;16.80;72.90
29663;DHT22;16578;53.266;7.920;2023-06-10T04:02:12;16.70;73.10
29663;DHT22;16578;53.266;7.920;2023-06-10T04:04:37;16.70;73.10
29663;DHT22;16578;53.266;7.920;2023-06-10T04:07:04;16.70;73.20
29663;DHT22;16578;53.266;7.920;2023-06-10T04:09:31;16.70;73.30
29663;DHT22;16578;53.266;7.920;2023-06-10T04:11:57;16.70;73.30
29663;DHT22;16578;53.266;7.920;2023-06-10T04:14:22;16.70;73.30
29663;DHT22;16578;53.266;7.920;2023-06-10T04:16:49;16.70;73.30
29663;DHT22;16578;53.266;7.920;2023-06-10T04:19:15;16.70;73.50
29663;DHT22;16578;53.266;7.920;2023-06-10T04:21:42;16.70;73.60
29663;DHT22;16578;53.266;7.920;2023-06-10T04:24:07;16.70;73.50
29663;DHT22;16578;53.266;7.920;2023-06-10T04:26:35;16.70;73.60
29663;DHT22;16578;53.266;7.920;2023-06-10T04:29:00;16.70;73.70
29663;DHT22;16578;53.266;7.920;2023-06-10T04:31:26;16.70;73.70
29663;DHT22;16578;53.266;7.920;2023-06-10T04:33:52;16.70;73.90
29663;DHT22;16578;53.266;7.920;2023-06-10T04:36:17;16.70;73.80
29663;DHT22;16578;53.266;7.920;2023-06-10T04:38:43;16.70;73.90
29663;DHT22;16578;53.266;7.920;2023-06-10T04:41:08;16.70;74.00
29663;DHT22;16578;53.266;7.920;2023-06-10T04:43:34;16.80;74.00
29663;DHT22;16578;53.266;7.920;2023-06-10T04:45:59;16.80;74.20
29663;DHT22;16578;53.266;7.920;2023-06-10T04:48:25;16.80;74.10
29663;DHT22;16578;53.266;7.920;2023-06-10T04:50:51;16.80;74.20
29663;DHT22;16578;53.266;7.920;2023-06-10T04:53:17;16.80;74.10
29663;DHT22;16578;53.266;7.920;2023-06-10T04:55:42;16.80;74.00
29663;DHT22;16578;53.266;7.920;2023-06-10T04:58:09;16.80;74.00
29663;DHT22;16578;53.266;7.920;2023-06-10T05:00:34;16.90;74.40
29663;DHT22;16578;53.266;7.920;2023-06-10T05:03:00;16.90;74.10
29663;DHT22;16578;53.266;7.920;2023-06-10T05:05:26;16.90;74.10
29663;DHT22;16578;53.266;7.920;2023-06-10T05:07:51;16.90;74.10
29663;DHT22;16578;53.266;7.920;2023-06-10T05:10:17;17.00;74.10
29663;DHT22;16578;53.266;7.920;2023-06-10T05:12:42;17.00;74.00
29663;DHT22;16578;53.266;7.920;2023-06-10T05:15:08;17.00;73.80
29663;DHT22;16578;53.266;7.920;2023-06-10T05:17:34;17.10;73.80
29663;DHT22;16578;53.266;7.920;2023-06-10T05:20:03;17.10;73.80
29663;DHT22;16578;53.266;7.920;2023-06-10T05:22:29;17.10;73.60
29663;DHT22;16578;53.266;7.920;2023-06-10T05:24:55;17.20;73.50
29663;DHT22;16578;53.266;7.920;2023-06-10T05:27:21;17.20;73.40
29663;DHT22;16578;53.266;7.920;2023-06-10T05:29:47;17.20;73.20
29663;DHT22;16578;53.266;7.920;2023-06-10T05:32:12;17.30;73.20
29663;DHT22;16578;53.266;7.920;2023-06-10T05:34:38;17.30;73.10
29663;DHT22;16578;53.266;7.920;2023-06-10T05:37:04;17.40;73.00
29663;DHT22;16578;53.266;7.920;2023-06-10T05:39:30;17.40;72.90
29663;DHT22;16578;53.266;7.920;2023-06-10T05:41:55;17.50;72.90
29663;DHT22;16578;53.266;7.920;2023-06-10T05:44:21;17.50;72.90
29663;DHT22;16578;53.266;7.920;2023-06-10T05:46:47;17.50;72.90
29663;DHT22;16578;53.266;7.920;2023-06-10T05:49:12;17.60;72.70
29663;DHT22;16578;53.266;7.920;2023-06-10T05:51:38;17.70;72.70
29663;DHT22;16578;53.266;7.920;2023-06-10T05:54:04;17.70;72.60
29663;DHT22;16578;53.266;7.920;2023-06-10T05:56:29;17.80;72.40
29663;DHT22;16578;53.266;7.920;2023-06-10T05:58:56;17.80;72.40
29663;DHT22;16578;53.266;7.920;2023-06-10T06:01:21;17.90;72.30
29663;DHT22;16578;53.266;7.920;2023-06-10T06:03:47;18.00;72.20
29663;DHT22;16578;53.266;7.920;2023-06-10T06:06:12;18.10;72.20
29663;DHT22;16578;53.266;7.920;2023-06-10T06:08:38;18.20;71.90
29663;DHT22;16578;53.266;7.920;2023-06-10T06:11:03;18.20;71.70
29663;DHT22;16578;53.266;7.920;2023-06-10T06:13:29;18.30;71.70
29663;DHT22;16578;53.266;7.920;2023-06-10T06:15:54;18.40;71.70
29663;DHT22;16578;53.266;7.920;2023-06-10T06:18:20;18.50;71.60
29663;DHT22;16578;53.266;7.920;2023-06-10T06:20:46;18.60;71.30
29663;DHT22;16578;53.266;7.920;2023-06-10T06:23:11;18.60;71.20
29663;DHT22;16578;53.266;7.920;2023-06-10T06:25:37;18.70;71.00
29663;DHT22;16578;53.266;7.920;2023-06-10T06:28:06;18.80;70.70
29663;DHT22;16578;53.266;7.920;2023-06-10T06:30:31;18.90;70.50
29663;DHT22;16578;53.266;7.920;2023-06-10T06:32:57;19.00;70.40
29663;DHT22;16578;53.266;7.920;2023-06-10T06:35:22;19.00;70.10
29663;DHT22;16578;53.266;7.920;2023-06-10T06:37:48;19.20;70.20
29663;DHT22;16578;53.266;7.920;2023-06-10T06:40:14;19.20;70.00
29663;DHT22;16578;53.266;7.920;2023-06-10T06:42:39;19.30;69.50
29663;DHT22;16578;53.266;7.920;2023-06-10T06:45:05;19.40;69.40
29663;DHT22;16578;53.266;7.920;2023-06-10T06:47:31;19.50;69.30
29663;DHT22;16578;53.266;7.920;2023-06-10T06:49:56;19.50;69.10
29663;DHT22;16578;53.266;7.920;2023-06-10T06:52:22;19.70;69.10
29663;DHT22;16578;53.266;7.920;2023-06-10T06:54:48;19.80;69.10
29663;DHT22;16578;53.266;7.920;2023-06-10T06:57:13;19.90;68.90
29663;DHT22;16578;53.266;7.920;2023-06-10T06:59:39;19.90;68.60
29663;DHT22;16578;53.266;7.920;2023-06-10T07:02:05;20.10;68.40
29663;DHT22;16578;53.266;7.920;2023-06-10T07:04:31;20.10;68.30
29663;DHT22;16578;53.266;7.920;2023-06-10T07:06:56;20.20;68.20
29663;DHT22;16578;53.266;7.920;2023-06-10T07:09:22;20.30;67.90
29663;DHT22;16578;53.266;7.920;2023-06-10T07:11:47;20.40;67.50
29663;DHT22;16578;53.266;7.920;2023-06-10T07:14:13;20.40;67.40
29663;DHT22;16578;53.266;7.920;2023-06-10T07:16:38;20.50;67.40
29663;DHT22;16578;53.266;7.920;2023-06-10T07:19:04;20.60;67.20
29663;DHT22;16578;53.266;7.920;2023-06-10T07:21:30;20.70;67.00
29663;DHT22;16578;53.266;7.920;2023-06-10T07:23:56;20.70;66.40
29663;DHT22;16578;53.266;7.920;2023-06-10T07:26:24;20.80;66.10
29663;DHT22;16578;53.266;7.920;2023-06-10T07:28:51;20.90;66.00
29663;DHT22;16578;53.266;7.920;2023-06-10T07:31:17;20.90;66.10
29663;DHT22;16578;53.266;7.920;2023-06-10T07:33:43;21.00;66.00
29663;DHT22;16578;53.266;7.920;2023-06-10T07:36:09;21.10;65.70
29663;DHT22;16578;53.266;7.920;2023-06-10T07:38:35;21.20;65.70
29663;DHT22;16578;53.266;7.920;2023-06-10T07:41:00;21.20;65.80
29663;DHT22;16578;53.266;7.920;2023-06-10T07:43:26;21.30;65.80
29663;DHT22;16578;53.266;7.920;2023-06-10T07:45:52;21.40;65.80
29663;DHT22;16578;53.266;7.920;2023-06-10T07:48:18;21.50;65.70
29663;DHT22;16578;53.266;7.920;2023-06-10T07:50:43;21.50;65.10
29663;DHT22;16578;53.266;7.920;2023-06-10T07:53:09;21.70;64.70
29663;DHT22;16578;53.266;7.920;2023-06-10T07:55:34;21.70;64.80
29663;DHT22;16578;53.266;7.920;2023-06-10T07:58:00;21.80;64.80
29663;DHT22;16578;53.266;7.920;2023-06-10T08:00:25;21.90;64.30
29663;DHT22;16578;53.266;7.920;2023-06-10T08:02:51;22.00;64.00
29663;DHT22;16578;53.266;7.920;2023-06-10T08:05:17;22.10;63.70
29663;DHT22;16578;53.266;7.920;2023-06-10T08:07:43;22.20;63.40
29663;DHT22;16578;53.266;7.920;2023-06-10T08:10:09;22.30;63.30
29663;DHT22;16578;53.266;7.920;2023-06-10T08:12:35;22.30;63.10
29663;DHT22;16578;53.266;7.920;2023-06-10T08:15:01;22.40;63.10
29663;DHT22;16578;53.266;7.920;2023-06-10T08:17:29;22.50;63.30
29663;DHT22;16578;53.266;7.920;2023-06-10T08:19:55;22.50;63.00
29663;DHT22;16578;53.266;7.920;2023-06-10T08:22:21;22.60;62.70
29663;DHT22;16578;53.266;7.920;2023-06-10T08:24:46;22.70;62.50
29663;DHT22;16578;53.266;7.920;2023-06-10T08:27:12;22.80;62.50
29663;DHT22;16578;53.266;7.920;2023-06-10T08:29:39;22.80;62.10
29663;DHT22;16578;53.266;7.920;2023-06-10T08:32:05;22.90;62.10
29663;DHT22;16578;53.266;7.920;2023-06-10T08:34:32;23.00;62.10
29663;DHT22;16578;53.266;7.920;2023-06-10T08:36:58;23.10;62.20
29663;DHT22;16578;53.266;7.920;2023-06-10T08:39:23;23.10;62.00
29663;DHT22;16578;53.266;7.920;2023-06-10T08:44:46;23.30;61.60
29663;DHT22;16578;53.266;7.920;2023-06-10T08:47:14;23.40;61.50
29663;DHT22;16578;53.266;7.920;2023-06-10T08:49:43;23.50;61.50
29663;DHT22;16578;53.266;7.920;2023-06-10T08:52:14;23.60;61.00
29663;DHT22;16578;53.266;7.920;2023-06-10T08:54:43;23.80;60.60
29663;DHT22;16578;53.266;7.920;2023-06-10T08:57:09;23.80;60.60
29663;DHT22;16578;53.266;7.920;2023-06-10T08:59:35;23.90;61.10
29663;DHT22;16578;53.266;7.920;2023-06-10T09:02:02;24.00;60.80
29663;DHT22;16578;53.266;7.920;2023-06-10T09:04:29;24.10;60.60
29663;DHT22;16578;53.266;7.920;2023-06-10T09:06:56;24.20;59.70
29663;DHT22;16578;53.266;7.920;2023-06-10T09:09:25;24.20;59.20
29663;DHT22;16578;53.266;7.920;2023-06-10T09:11:53;24.30;59.50
29663;DHT22;16578;53.266;7.920;2023-06-10T09:14:19;24.30;59.20
29663;DHT22;16578;53.266;7.920;2023-06-10T09:16:44;24.40;59.20
29663;DHT22;16578;53.266;7.920;2023-06-10T09:19:12;24.50;59.10
29663;DHT22;16578;53.266;7.920;2023-06-10T09:21:38;24.50;58.70
29663;DHT22;16578;53.266;7.920;2023-06-10T09:24:05;24.60;58.40
29663;DHT22;16578;53.266;7.920;2023-06-10T09:26:30;24.60;58.40
29663;DHT22;16578;53.266;7.920;2023-06-10T09:29:06;24.70;58.90
29663;DHT22;16578;53.266;7.920;2023-06-10T09:31:35;24.80;58.60
29663;DHT22;16578;53.266;7.920;2023-06-10T09:34:15;24.80;58.70
29663;DHT22;16578;53.266;7.920;2023-06-10T09:36:42;24.80;58.20
29663;DHT22;16578;53.266;7.920;2023-06-10T09:39:18;24.80;58.40
29663;DHT22;16578;53.266;7.920;2023-06-10T09:41:45;24.90;57.60
29663;DHT22;16578;53.266;7.920;2023-06-10T09:44:18;24.80;58.70
29663;DHT22;16578;53.266;7.920;2023-06-10T09:46:46;24.80;58.30
29663;DHT22;16578;53.266;7.920;2023-06-10T09:49:12;24.80;58.70
29663;DHT22;16578;53.266;7.920;2023-06-10T09:51:37;24.80;58.90
29663;DHT22;16578;53.266;7.920;2023-06-10T09:54:03;24.80;58.20
29663;DHT22;16578;53.266;7.920;2023-06-10T09:56:35;24.80;58.40
29663;DHT22;16578;53.266;7.920;2023-06-10T09:59:02;24.80;58.10
29663;DHT22;16578;53.266;7.920;2023-06-10T10:01:30;24.80;57.90
29663;DHT22;16578;53.266;7.920;2023-06-10T10:03:56;24.80;57.90
29663;DHT22;16578;53.266;7.920;2023-06-10T10:06:21;24.80;58.20
29663;DHT22;16578;53.266;7.920;2023-06-10T10:08:48;24.80;57.50
29663;DHT22;16578;53.266;7.920;2023-06-10T10:11:18;24.80;57.50
29663;DHT22;16578;53.266;7.920;2023-06-10T10:13:47;24.90;58.80
29663;DHT22;16578;53.266;7.920;2023-06-10T10:16:55;24.90;57.50
29663;DHT22;16578;53.266;7.920;2023-06-10T10:19:20;24.90;58.00
29663;DHT22;16578;53.266;7.920;2023-06-10T10:21:54;24.90;57.80
29663;DHT22;16578;53.266;7.920;2023-06-10T10:24:26;25.00;58.10
29663;DHT22;16578;53.266;7.920;2023-06-10T10:26:58;25.00;57.90
29663;DHT22;16578;53.266;7.920;2023-06-10T10:29:29;25.00;58.00
29663;DHT22;16578;53.266;7.920;2023-06-10T10:31:56;25.10;58.10
29663;DHT22;16578;53.266;7.920;2023-06-10T10:34:33;25.20;57.70
29663;DHT22;16578;53.266;7.920;2023-06-10T10:36:59;25.30;57.60
29663;DHT22;16578;53.266;7.920;2023-06-10T10:39:25;25.40;57.70
29663;DHT22;16578;53.266;7.920;2023-06-10T10:41:54;25.40;57.10
29663;DHT22;16578;53.266;7.920;2023-06-10T10:44:20;25.40;56.90
29663;DHT22;16578;53.266;7.920;2023-06-10T10:46:50;25.40;56.80
29663;DHT22;16578;53.266;7.920;2023-06-10T10:49:17;25.40;56.50
29663;DHT22;16578;53.266;7.920;2023-06-10T10:52:02;25.40;56.50
29663;DHT22;16578;53.266;7.920;2023-06-10T10:54:35;25.40;56.60
29663;DHT22;16578;53.266;7.920;2023-06-10T10:59:58;25.30;57.00
29663;DHT22;16578;53.266;7.920;2023-06-10T11:02:40;25.40;57.30
29663;DHT22;16578;53.266;7.920;2023-06-10T11:05:08;25.40;57.30
29663;DHT22;16578;53.266;7.920;2023-06-10T11:07:35;25.50;56.30
29663;DHT22;16578;53.266;7.920;2023-06-10T11:10:12;25.60;55.40
29663;DHT22;16578;53.266;7.920;2023-06-10T11:12:54;25.70;55.20
29663;DHT22;16578;53.266;7.920;2023-06-10T11:15:25;25.80;55.50
29663;DHT22;16578;53.266;7.920;2023-06-10T11:26:13;25.90;54.90
29663;DHT22;16578;53.266;7.920;2023-06-10T11:28:39;25.90;54.60
29663;DHT22;16578;53.266;7.920;2023-06-10T11:31:05;25.80;54.70
29663;DHT22;16578;53.266;7.920;2023-06-10T11:33:31;25.80;54.60
29663;DHT22;16578;53.266;7.920;2023-06-10T11:35:57;25.80;54.80
29663;DHT22;16578;53.266;7.920;2023-06-10T11:38:24;25.80;54.50
29663;DHT22;16578;53.266;7.920;2023-06-10T11:40:49;25.70;54.40
29663;DHT22;16578;53.266;7.920;2023-06-10T11:43:17;25.70;54.70
29663;DHT22;16578;53.266;7.920;2023-06-10T11:45:43;25.70;54.80
29663;DHT22;16578;53.266;7.920;2023-06-10T11:48:09;25.70;54.40
29663;DHT22;16578;53.266;7.920;2023-06-10T11:50:36;25.70;54.80
29663;DHT22;16578;53.266;7.920;2023-06-10T11:53:02;25.80;54.50
29663;DHT22;16578;53.266;7.920;2023-06-10T11:55:45;25.80;54.10
29663;DHT22;16578;53.266;7.920;2023-06-10T11:58:21;25.80;53.70
29663;DHT22;16578;53.266;7.920;2023-06-10T12:00:52;25.90;53.60
29663;DHT22;16578;53.266;7.920;2023-06-10T12:03:26;25.80;53.80
29663;DHT22;16578;53.266;7.920;2023-06-10T12:06:03;25.90;53.80
29663;DHT22;16578;53.266;7.920;2023-06-10T12:08:29;25.90;53.60
29663;DHT22;16578;53.266;7.920;2023-06-10T12:10:56;25.90;53.60
29663;DHT22;16578;53.266;7.920;2023-06-10T12:13:22;25.90;53.10
29663;DHT22;16578;53.266;7.920;2023-06-10T12:15:49;26.00;53.10
29663;DHT22;16578;53.266;7.920;2023-06-10T12:18:19;26.00;53.00
29663;DHT22;16578;53.266;7.920;2023-06-10T12:20:45;26.00;52.50
29663;DHT22;16578;53.266;7.920;2023-06-10T12:23:12;26.00;52.60
29663;DHT22;16578;53.266;7.920;2023-06-10T12:25:38;26.00;53.00
29663;DHT22;16578;53.266;7.920;2023-06-10T12:28:05;26.10;51.90
29663;DHT22;16578;53.266;7.920;2023-06-10T12:30:32;26.10;52.20
29663;DHT22;16578;53.266;7.920;2023-06-10T12:32:58;26.10;51.80
29663;DHT22;16578;53.266;7.920;2023-06-10T12:35:27;26.20;51.10
29663;DHT22;16578;53.266;7.920;2023-06-10T12:38:01;26.20;50.80
29663;DHT22;16578;53.266;7.920;2023-06-10T12:40:29;26.20;49.90
29663;DHT22;16578;53.266;7.920;2023-06-10T12:42:55;26.20;49.50
29663;DHT22;16578;53.266;7.920;2023-06-10T12:45:38;26.30;49.80
29663;DHT22;16578;53.266;7.920;2023-06-10T12:48:10;26.30;49.40
29663;DHT22;16578;53.266;7.920;2023-06-10T12:50:38;26.30;50.20
29663;DHT22;16578;53.266;7.920;2023-06-10T12:53:04;26.40;50.20
29663;DHT22;16578;53.266;7.920;2023-06-10T12:55:30;26.40;49.90
29663;DHT22;16578;53.266;7.920;2023-06-10T12:57:55;26.40;50.20
29663;DHT22;16578;53.266;7.920;2023-06-10T13:00:22;26.50;50.20
29663;DHT22;16578;53.266;7.920;2023-06-10T13:02:53;26.50;50.20
29663;DHT22;16578;53.266;7.920;2023-06-10T13:05:19;26.60;49.90
29663;DHT22;16578;53.266;7.920;2023-06-10T13:07:45;26.50;50.60
29663;DHT22;16578;53.266;7.920;2023-06-10T13:10:12;26.60;49.80
29663;DHT22;16578;53.266;7.920;2023-06-10T13:12:39;26.70;49.30
29663;DHT22;16578;53.266;7.920;2023-06-10T13:15:05;26.70;49.10
29663;DHT22;16578;53.266;7.920;2023-06-10T13:17:31;26.80;49.20
29663;DHT22;16578;53.266;7.920;2023-06-10T13:19:56;26.80;48.90
29663;DHT22;16578;53.266;7.920;2023-06-10T13:22:22;26.80;48.80
29663;DHT22;16578;53.266;7.920;2023-06-10T13:24:49;26.90;48.90
29663;DHT22;16578;53.266;7.920;2023-06-10T13:27:14;26.90;48.60
29663;DHT22;16578;53.266;7.920;2023-06-10T13:29:40;26.90;48.20
29663;DHT22;16578;53.266;7.920;2023-06-10T13:32:06;26.90;48.00
29663;DHT22;16578;53.266;7.920;2023-06-10T13:34:32;27.00;48.10
29663;DHT22;16578;53.266;7.920;2023-06-10T13:36:57;27.10;47.20
29663;DHT22;16578;53.266;7.920;2023-06-10T13:39:23;27.10;47.20
29663;DHT22;16578;53.266;7.920;2023-06-10T13:41:49;27.10;47.10
29663;DHT22;16578;53.266;7.920;2023-06-10T13:44:14;27.10;47.30
29663;DHT22;16578;53.266;7.920;2023-06-10T13:46:40;27.20;47.00
29663;DHT22;16578;53.266;7.920;2023-06-10T13:49:06;27.20;46.30
29663;DHT22;16578;53.266;7.920;2023-06-10T13:51:31;27.30;46.40
29663;DHT22;16578;53.266;7.920;2023-06-10T13:53:57;27.30;45.90
29663;DHT22;16578;53.266;7.920;2023-06-10T13:56:22;27.30;45.60
29663;DHT22;16578;53.266;7.920;2023-06-10T13:58:48;27.30;45.40
29663;DHT22;16578;53.266;7.920;2023-06-10T14:01:14;27.30;44.80
29663;DHT22;16578;53.266;7.920;2023-06-10T14:03:39;27.30;44.50
29663;DHT22;16578;53.266;7.920;2023-06-10T14:06:05;27.40;44.30
29663;DHT22;16578;53.266;7.920;2023-06-10T14:08:30;27.40;44.60
29663;DHT22;16578;53.266;7.920;2023-06-10T14:10:56;27.40;44.80
29663;DHT22;16578;53.266;7.920;2023-06-10T14:13:22;27.50;44.40
29663;DHT22;16578;53.266;7.920;2023-06-10T14:15:47;27.50;43.80
29663;DHT22;16578;53.266;7.920;2023-06-10T14:18:13;27.50;43.60
29663;DHT22;16578;53.266;7.920;2023-06-10T14:20:38;27.60;43.50
29663;DHT22;16578;53.266;7.920;2023-06-10T14:23:04;27.60;43.60
29663;DHT22;16578;53.266;7.920;2023-06-10T14:25:29;27.70;43.20
29663;DHT22;16578;53.266;7.920;2023-06-10T14:27:55;27.70;43.20
29663;DHT22;16578;53.266;7.920;2023-06-10T14:30:21;27.70;43.30
29663;DHT22;16578;53.266;7.920;2023-06-10T14:32:46;27.70;42.80
29663;DHT22;16578;53.266;7.920;2023-06-10T14:35:12;27.70;42.50
29663;DHT22;16578;53.266;7.920;2023-06-10T14:37:37;27.70;42.30
29663;DHT22;16578;53.266;7.920;2023-06-10T14:40:06;27.70;42.30
29663;DHT22;16578;53.266;7.920;2023-06-10T14:42:32;27.80;42.10
29663;DHT22;16578;53.266;7.920;2023-06-10T14:44:58;27.80;42.20
29663;DHT22;16578;53.266;7.920;2023-06-10T14:47:23;27.80;42.10
29663;DHT22;16578;53.266;7.920;2023-06-10T14:49:49;27.80;42.20
29663;DHT22;16578;53.266;7.920;2023-06-10T14:52:15;27.90;42.20
29663;DHT22;16578;53.266;7.920;2023-06-10T14:54:41;27.90;41.00
29663;DHT22;16578;53.266;7.920;2023-06-10T14:57:06;27.90;41.00
29663;DHT22;16578;53.266;7.920;2023-06-10T14:59:32;27.90;41.40
29663;DHT22;16578;53.266;7.920;2023-06-10T15:01:58;28.00;41.20
29663;DHT22;16578;53.266;7.920;2023-06-10T15:04:26;28.00;40.70
29663;DHT22;16578;53.266;7.920;2023-06-10T15:06:51;28.10;40.50
29663;DHT22;16578;53.266;7.920;2023-06-10T15:09:17;28.00;40.30
29663;DHT22;16578;53.266;7.920;2023-06-10T15:11:43;28.10;40.60
29663;DHT22;16578;53.266;7.920;2023-06-10T15:14:08;28.10;40.30
29663;DHT22;16578;53.266;7.920;2023-06-10T15:16:34;28.10;39.80
29663;DHT22;16578;53.266;7.920;2023-06-10T15:18:59;28.10;39.90
29663;DHT22;16578;53.266;7.920;2023-06-10T15:21:25;28.10;40.00
29663;DHT22;16578;53.266;7.920;2023-06-10T15:23:50;28.20;39.90
29663;DHT22;16578;53.266;7.920;2023-06-10T15:26:17;28.20;39.90
29663;DHT22;16578;53.266;7.920;2023-06-10T15:28:42;28.20;38.90
29663;DHT22;16578;53.266;7.920;2023-06-10T15:31:08;28.20;38.80
29663;DHT22;16578;53.266;7.920;2023-06-10T15:33:33;28.20;38.30
29663;DHT22;16578;53.266;7.920;2023-06-10T15:35:59;28.20;38.00
29663;DHT22;16578;53.266;7.920;2023-06-10T15:38:25;28.30;38.80
29663;DHT22;16578;53.266;7.920;2023-06-10T15:40:50;28.30;38.00
29663;DHT22;16578;53.266;7.920;2023-06-10T15:43:16;28.30;37.90
29663;DHT22;16578;53.266;7.920;2023-06-10T15:45:41;28.30;37.70